createdAt,value
2023-02-13T00:01:08.041Z,25.85
2023-02-13T00:03:34.490Z,27.50
2023-02-13T00:06:00.862Z,29.10
2023-02-13T00:08:27.242Z,29.85
2023-02-13T00:10:53.602Z,28.48
2023-02-13T00:13:19.955Z,26.60
2023-02-13T00:15:46.364Z,28.33
2023-02-13T00:18:12.763Z,28.52
2023-02-13T00:20:39.132Z,26.85
2023-02-13T00:23:05.484Z,26.80
2023-02-13T00:25:31.876Z,30.17
2023-02-13T00:27:58.248Z,27.88
2023-02-13T00:30:24.596Z,27.70
2023-02-13T00:32:51.062Z,27.42
2023-02-13T00:35:17.442Z,31.17
2023-02-13T00:37:43.786Z,34.35
2023-02-13T00:40:10.629Z,33.22
2023-02-13T00:42:36.982Z,32.75
2023-02-13T00:45:03.383Z,35.97
2023-02-13T00:47:29.759Z,38.92
2023-02-13T00:49:56.107Z,41.75
2023-02-13T00:52:22.462Z,42.38
2023-02-13T00:54:48.815Z,45.00
2023-02-13T00:57:15.171Z,41.17
2023-02-13T00:59:41.511Z,39.05
2023-02-13T01:02:07.894Z,41.08
2023-02-13T01:04:34.369Z,41.83
2023-02-13T01:07:00.760Z,41.65
2023-02-13T01:09:27.141Z,37.25
2023-02-13T01:11:53.510Z,34.90
2023-02-13T01:14:19.984Z,35.42
2023-02-13T01:16:46.471Z,42.50
2023-02-13T01:19:12.864Z,40.55
2023-02-13T01:21:39.254Z,40.50
2023-02-13T01:24:05.850Z,40.92
2023-02-13T01:26:32.202Z,39.42
2023-02-13T01:28:58.624Z,41.55
2023-02-13T01:31:25.469Z,38.95
2023-02-13T01:33:52.226Z,38.22
2023-02-13T01:36:18.593Z,39.25
2023-02-13T01:38:44.957Z,41.97
2023-02-13T01:41:11.441Z,39.67
2023-02-13T01:43:45.777Z,42.35
2023-02-13T01:46:15.903Z,42.85
2023-02-13T01:48:42.421Z,43.90
2023-02-13T01:51:18.127Z,44.40
2023-02-13T01:53:50.121Z,42.45
2023-02-13T01:56:32.697Z,46.92
2023-02-13T01:59:04.848Z,47.97
2023-02-13T02:01:32.151Z,43.90
2023-02-13T02:04:10.635Z,43.10
2023-02-13T02:06:51.388Z,42.55
2023-02-13T02:09:27.342Z,45.70
2023-02-13T02:12:04.916Z,41.33
2023-02-13T02:14:31.682Z,43.47
2023-02-13T02:16:58.568Z,42.42
2023-02-13T02:19:44.669Z,42.10
2023-02-13T02:22:36.215Z,44.97
2023-02-13T02:25:24.499Z,47.45
2023-02-13T02:28:31.745Z,40.83
2023-02-13T02:31:28.502Z,40.63
2023-02-13T02:34:41.207Z,37.97
2023-02-13T02:37:18.796Z,38.08
2023-02-13T02:40:03.455Z,45.75
2023-02-13T02:43:07.575Z,39.88
2023-02-13T02:45:55.708Z,43.55
2023-02-13T02:51:22.871Z,34.53
2023-02-13T02:54:28.045Z,41.10
2023-02-13T02:57:01.446Z,40.53
2023-02-13T02:59:48.279Z,41.75
2023-02-13T03:02:34.511Z,43.00
2023-02-13T03:05:21.370Z,43.30
2023-02-13T03:07:47.739Z,46.78
2023-02-13T03:10:41.133Z,39.00
2023-02-13T03:13:17.416Z,39.88
2023-02-13T03:16:04.393Z,43.65
2023-02-13T03:18:53.510Z,43.13
2023-02-13T03:22:05.842Z,38.47
2023-02-13T03:24:38.819Z,41.50
2023-02-13T03:27:11.705Z,37.78
2023-02-13T03:30:11.556Z,39.47
2023-02-13T03:33:18.193Z,42.05
2023-02-13T03:39:03.167Z,38.83
2023-02-13T03:41:55.700Z,36.60
2023-02-13T03:44:31.318Z,40.28
2023-02-13T03:47:00.803Z,36.83
2023-02-13T03:49:54.916Z,37.80
2023-02-13T03:52:32.127Z,36.70
2023-02-13T03:55:22.859Z,38.08
2023-02-13T03:58:11.011Z,36.58
2023-02-13T04:03:20.188Z,34.50
2023-02-13T04:05:54.033Z,36.08
2023-02-13T04:08:20.411Z,36.17
2023-02-13T04:10:55.722Z,35.67
2023-02-13T04:13:36.085Z,33.88
2023-02-13T04:16:13.677Z,39.42
2023-02-13T04:18:40.388Z,39.17
2023-02-13T04:21:07.969Z,43.63
2023-02-13T04:23:36.835Z,38.88
2023-02-13T04:26:07.840Z,38.35
2023-02-13T04:28:34.383Z,36.83
2023-02-13T04:31:01.322Z,34.95
2023-02-13T04:33:27.942Z,33.42
2023-02-13T04:35:54.325Z,33.53
2023-02-13T04:38:20.686Z,32.05
2023-02-13T04:40:47.015Z,35.55
2023-02-13T04:43:13.425Z,34.92
2023-02-13T04:45:39.817Z,33.10
2023-02-13T04:48:06.303Z,38.15
2023-02-13T04:50:32.653Z,34.83
2023-02-13T04:52:59.015Z,36.40
2023-02-13T04:55:27.021Z,33.80
2023-02-13T04:57:54.556Z,35.33
2023-02-13T05:00:22.733Z,35.88
2023-02-13T05:02:49.663Z,32.70
2023-02-13T05:05:16.049Z,33.67
2023-02-13T05:07:42.831Z,34.58
2023-02-13T05:10:10.980Z,33.80
2023-02-13T05:12:37.732Z,32.13
2023-02-13T05:15:05.181Z,31.27
2023-02-13T05:17:31.610Z,29.13
2023-02-13T05:19:59.110Z,29.58
2023-02-13T05:22:43.787Z,29.02
2023-02-13T05:25:10.164Z,26.73
2023-02-13T05:27:36.509Z,30.92
2023-02-13T05:30:03.154Z,26.63
2023-02-13T05:32:29.647Z,31.15
2023-02-13T05:34:55.997Z,27.63
2023-02-13T05:37:22.372Z,32.20
2023-02-13T05:39:48.756Z,30.52
2023-02-13T05:42:15.109Z,28.92
2023-02-13T05:44:41.472Z,28.17
2023-02-13T05:47:07.810Z,30.02
2023-02-13T05:49:34.329Z,29.42
2023-02-13T05:52:03.652Z,29.02
2023-02-13T05:54:29.986Z,27.15
2023-02-13T05:56:56.389Z,31.75
2023-02-13T05:59:24.011Z,33.08
2023-02-13T06:01:50.455Z,31.27
2023-02-13T06:04:16.904Z,28.08
2023-02-13T06:06:44.764Z,31.02
2023-02-13T06:09:11.152Z,29.77
2023-02-13T06:11:37.906Z,32.88
2023-02-13T06:14:04.325Z,31.52
2023-02-13T06:16:34.731Z,31.55
2023-02-13T06:19:01.131Z,29.15
2023-02-13T06:21:27.594Z,29.75
2023-02-13T06:23:53.976Z,27.10
2023-02-13T06:26:20.360Z,27.85
2023-02-13T06:28:46.761Z,31.23
2023-02-13T06:31:13.331Z,28.48
2023-02-13T06:33:39.739Z,32.60
2023-02-13T06:36:06.517Z,34.30
2023-02-13T06:38:32.941Z,33.42
2023-02-13T06:41:01.900Z,31.55
2023-02-13T06:43:28.276Z,33.03
2023-02-13T06:45:54.625Z,35.58
2023-02-13T06:48:21.001Z,33.95
2023-02-13T06:50:47.354Z,33.00
2023-02-13T06:53:13.721Z,33.80
2023-02-13T06:55:40.357Z,34.35
2023-02-13T06:58:06.908Z,35.60
2023-02-13T07:00:33.993Z,39.28
2023-02-13T07:03:05.898Z,41.90
2023-02-13T07:05:33.109Z,42.33
2023-02-13T07:07:59.477Z,40.80
2023-02-13T07:10:25.807Z,45.95
2023-02-13T07:13:05.010Z,43.67
2023-02-13T07:15:33.246Z,45.67
2023-02-13T07:18:00.380Z,45.70
2023-02-13T07:20:27.882Z,38.38
2023-02-13T07:22:58.786Z,41.55
2023-02-13T07:25:25.141Z,44.90
2023-02-13T07:27:51.510Z,39.40
2023-02-13T07:30:18.093Z,42.22
2023-02-13T07:32:44.527Z,41.15
2023-02-13T07:35:10.891Z,46.40
2023-02-13T07:37:37.307Z,44.40
2023-02-13T07:40:05.619Z,40.03
2023-02-13T07:42:34.669Z,49.92
2023-02-13T07:45:01.443Z,38.58
2023-02-13T07:47:27.779Z,46.53
2023-02-13T07:49:54.785Z,41.80
2023-02-13T07:52:21.158Z,37.67
2023-02-13T07:54:47.972Z,41.63
2023-02-13T07:57:15.842Z,46.40
2023-02-13T07:59:42.516Z,44.50
2023-02-13T08:02:13.744Z,41.25
2023-02-13T08:04:40.676Z,38.00
2023-02-13T08:07:07.398Z,42.10
2023-02-13T08:09:52.629Z,44.58
2023-02-13T08:12:18.986Z,38.97
2023-02-13T08:14:45.329Z,40.03
2023-02-13T08:17:11.793Z,42.60
2023-02-13T08:19:38.411Z,35.85
2023-02-13T08:22:04.849Z,37.10
2023-02-13T08:24:32.529Z,35.60
2023-02-13T08:26:59.012Z,32.55
2023-02-13T08:29:25.358Z,38.80
2023-02-13T08:31:51.791Z,42.22
2023-02-13T08:34:18.185Z,34.45
2023-02-13T08:36:44.528Z,30.65
2023-02-13T08:39:11.133Z,33.50
2023-02-13T08:41:37.563Z,35.75
2023-02-13T08:44:04.067Z,34.40
2023-02-13T08:46:30.777Z,32.33
2023-02-13T08:48:57.171Z,31.23
2023-02-13T08:51:23.549Z,32.17
2023-02-13T08:53:50.195Z,35.15
2023-02-13T08:56:16.932Z,38.20
2023-02-13T08:58:43.292Z,31.20
2023-02-13T09:01:09.871Z,30.98
2023-02-13T09:03:36.604Z,30.52
2023-02-13T09:06:03.635Z,26.52
2023-02-13T09:08:30.071Z,26.45
2023-02-13T09:11:01.316Z,32.58
2023-02-13T09:13:32.992Z,37.15
2023-02-13T09:16:01.463Z,29.00
2023-02-13T09:18:28.388Z,25.70
2023-02-13T09:21:03.013Z,28.15
2023-02-13T09:23:42.223Z,28.05
2023-02-13T09:26:11.831Z,28.77
2023-02-13T09:31:10.455Z,25.52
2023-02-13T09:33:37.696Z,27.65
2023-02-13T09:36:09.157Z,26.40
2023-02-13T09:38:35.755Z,30.77
2023-02-13T09:41:16.429Z,27.08
2023-02-13T09:43:53.352Z,25.98
2023-02-13T09:46:32.669Z,26.20
2023-02-13T09:49:05.824Z,28.92
2023-02-13T09:51:32.442Z,26.20
2023-02-13T09:54:04.648Z,24.38
2023-02-13T09:57:02.601Z,25.35
2023-02-13T09:59:43.038Z,33.05
2023-02-13T10:02:37.359Z,25.25
2023-02-13T10:07:48.496Z,23.48
2023-02-13T10:10:37.954Z,22.73
2023-02-13T10:13:23.554Z,23.13
2023-02-13T10:16:09.183Z,21.40
2023-02-13T10:18:49.380Z,23.67
2023-02-13T10:21:21.574Z,25.77
2023-02-13T10:23:59.778Z,20.73
2023-02-13T10:26:42.530Z,25.60
2023-02-13T10:29:41.398Z,24.90
2023-02-13T10:32:14.463Z,21.48
2023-02-13T10:34:46.144Z,19.40
2023-02-13T10:37:15.804Z,20.50
2023-02-13T10:42:27.846Z,17.98
2023-02-13T10:45:25.393Z,17.40
2023-02-13T10:48:03.349Z,16.52
2023-02-13T10:50:47.786Z,19.67
2023-02-13T10:53:23.468Z,21.77
2023-02-13T10:56:07.884Z,17.92
2023-02-13T10:59:04.786Z,16.58
2023-02-13T11:01:55.414Z,16.20
2023-02-13T11:04:22.321Z,18.98
2023-02-13T11:07:00.349Z,19.85
2023-02-13T11:09:28.038Z,19.60
2023-02-13T11:11:54.829Z,18.15
2023-02-13T11:14:28.020Z,14.20
2023-02-13T11:17:03.586Z,20.55
2023-02-13T11:19:34.556Z,16.65
2023-02-13T11:22:08.146Z,15.02
2023-02-13T11:24:35.503Z,15.57
2023-02-13T11:27:13.654Z,16.23
2023-02-13T11:29:57.595Z,16.13
2023-02-13T11:32:26.731Z,15.43
2023-02-13T11:34:54.770Z,17.00
2023-02-13T11:37:29.787Z,17.67
2023-02-13T11:39:59.202Z,17.20
2023-02-13T11:42:31.585Z,15.43
2023-02-13T11:45:05.034Z,15.32
2023-02-13T11:47:40.613Z,14.50
2023-02-13T11:50:32.552Z,16.35
2023-02-13T11:53:03.152Z,16.38
2023-02-13T11:55:35.109Z,14.65
2023-02-13T11:58:15.462Z,15.48
2023-02-13T12:00:43.430Z,13.77
2023-02-13T12:03:21.821Z,14.20
2023-02-13T12:06:15.499Z,13.20
2023-02-13T12:08:46.015Z,10.68
2023-02-13T12:11:38.979Z,11.52
2023-02-13T12:14:05.769Z,9.48
2023-02-13T12:16:38.650Z,11.70
2023-02-13T12:19:10.790Z,10.50
2023-02-13T12:22:07.042Z,7.80
2023-02-13T12:25:04.846Z,9.82
2023-02-13T12:27:57.637Z,8.20
2023-02-13T12:30:42.764Z,8.90
2023-02-13T12:33:25.987Z,8.32
2023-02-13T12:36:01.956Z,7.90
2023-02-13T12:38:57.362Z,8.43
2023-02-13T12:41:34.742Z,9.30
2023-02-13T12:44:38.478Z,8.43
2023-02-13T12:47:26.413Z,9.93
2023-02-13T12:50:07.027Z,7.85
2023-02-13T12:52:49.785Z,8.68
2023-02-13T12:55:43.534Z,7.85
2023-02-13T12:58:41.502Z,9.73
2023-02-13T13:01:35.069Z,8.68
2023-02-13T13:04:20.406Z,8.80
2023-02-13T13:07:00.882Z,12.57
2023-02-13T13:10:08.385Z,9.82
2023-02-13T13:12:58.179Z,12.27
2023-02-13T13:15:58.296Z,11.50
2023-02-13T13:18:33.971Z,11.18
2023-02-13T13:23:52.042Z,11.68
2023-02-13T13:26:27.532Z,10.40
2023-02-13T13:28:58.024Z,13.73
2023-02-13T13:31:26.679Z,12.55
2023-02-13T13:33:58.468Z,11.05
2023-02-13T13:36:40.475Z,11.20
2023-02-13T13:39:23.016Z,13.35
2023-02-13T13:42:02.239Z,12.52
2023-02-13T13:44:55.944Z,12.93
2023-02-13T13:47:36.193Z,12.77
2023-02-13T13:50:05.755Z,12.40
2023-02-13T13:57:41.186Z,14.07
2023-02-13T14:00:14.138Z,14.50
2023-02-13T14:02:42.589Z,12.15
2023-02-13T14:05:31.440Z,11.45
2023-02-13T14:08:04.162Z,12.30
2023-02-13T14:10:30.621Z,11.57
2023-02-13T14:12:56.925Z,10.63
2023-02-13T14:15:38.286Z,11.10
2023-02-13T14:18:13.606Z,11.25
2023-02-13T14:20:50.476Z,11.73
2023-02-13T14:23:27.643Z,12.02
2023-02-13T14:26:17.814Z,10.80
2023-02-13T14:29:17.079Z,10.52
2023-02-13T14:31:59.467Z,11.05
2023-02-13T14:34:30.932Z,11.45
2023-02-13T14:37:04.778Z,12.05
2023-02-13T14:39:35.913Z,11.02
2023-02-13T14:42:06.169Z,11.57
2023-02-13T14:44:38.909Z,12.13
2023-02-13T14:47:17.108Z,13.50
2023-02-13T14:49:44.300Z,13.65
2023-02-13T14:52:27.402Z,14.05
2023-02-13T14:54:58.191Z,14.40
2023-02-13T14:57:31.598Z,14.38
2023-02-13T15:00:06.553Z,18.83
2023-02-13T15:02:42.476Z,14.18
2023-02-13T15:05:15.419Z,12.75
2023-02-13T15:07:49.232Z,16.08
2023-02-13T15:10:18.322Z,15.02
2023-02-13T15:12:47.083Z,14.57
2023-02-13T15:15:31.289Z,13.30
2023-02-13T15:18:20.430Z,14.63
2023-02-13T15:20:47.392Z,15.55
2023-02-13T15:23:22.163Z,15.68
2023-02-13T15:25:55.781Z,16.30
2023-02-13T15:28:24.425Z,18.95
2023-02-13T15:30:56.221Z,16.20
2023-02-13T15:33:25.363Z,15.48
2023-02-13T15:35:57.020Z,17.52
2023-02-13T15:38:26.691Z,19.05
2023-02-13T15:40:57.871Z,17.63
2023-02-13T15:43:45.715Z,16.70
2023-02-13T15:46:33.155Z,17.52
2023-02-13T15:49:05.435Z,18.02
2023-02-13T15:51:32.362Z,17.27
2023-02-13T15:54:02.215Z,17.00
2023-02-13T15:56:29.261Z,16.77
2023-02-13T15:58:56.798Z,17.38
2023-02-13T16:01:23.915Z,21.95
2023-02-13T16:03:56.411Z,18.20
2023-02-13T16:06:24.165Z,20.05
2023-02-13T16:08:55.691Z,16.10
2023-02-13T16:11:39.525Z,18.52
2023-02-13T16:14:25.607Z,30.58
2023-02-13T16:16:58.667Z,24.42
2023-02-13T16:19:39.162Z,18.80
2023-02-13T16:22:26.183Z,17.10
2023-02-13T16:24:58.135Z,18.15
2023-02-13T16:27:27.763Z,19.83
2023-02-13T16:32:28.682Z,20.50
2023-02-13T16:34:56.176Z,16.63
2023-02-13T16:37:27.716Z,17.30
2023-02-13T16:39:54.091Z,18.30
2023-02-13T16:42:20.509Z,18.60
2023-02-13T16:44:46.873Z,18.55
2023-02-13T16:47:24.143Z,21.85
2023-02-13T16:49:56.712Z,18.33
2023-02-13T16:52:26.537Z,20.20
2023-02-13T16:54:55.402Z,20.88
2023-02-13T16:57:31.164Z,20.33
2023-02-13T17:02:32.508Z,21.27
2023-02-13T17:05:18.142Z,19.25
2023-02-13T17:07:53.242Z,20.95
2023-02-13T17:10:33.908Z,22.67
2023-02-13T17:13:02.839Z,21.08
2023-02-13T17:15:31.684Z,21.83
2023-02-13T17:17:59.738Z,23.10
2023-02-13T17:20:33.788Z,22.70
2023-02-13T17:23:03.434Z,27.17
2023-02-13T17:28:15.126Z,19.90
2023-02-13T17:30:42.550Z,22.95
2023-02-13T17:33:14.888Z,23.80
2023-02-13T17:35:41.288Z,21.98
2023-02-13T17:38:09.754Z,22.38
2023-02-13T17:40:36.777Z,22.08
2023-02-13T17:43:03.758Z,23.13
2023-02-13T17:45:33.434Z,21.63
2023-02-13T17:47:59.931Z,23.35
2023-02-13T17:50:28.236Z,23.73
2023-02-13T17:52:55.683Z,23.95
2023-02-13T17:55:27.320Z,24.63
2023-02-13T17:57:56.504Z,23.88
2023-02-13T18:00:25.050Z,22.80
2023-02-13T18:02:51.637Z,26.02
2023-02-13T18:05:18.906Z,25.77
2023-02-13T18:07:46.594Z,24.90
2023-02-13T18:10:19.322Z,24.55
2023-02-13T18:12:47.602Z,26.98
2023-02-13T18:15:15.177Z,27.10
2023-02-13T18:17:42.060Z,26.17
2023-02-13T18:20:12.066Z,26.33
2023-02-13T18:22:38.495Z,24.50
2023-02-13T18:25:05.636Z,26.40
2023-02-13T18:27:32.398Z,27.65
2023-02-13T18:29:58.874Z,26.55
2023-02-13T18:32:25.290Z,27.58
2023-02-13T18:34:51.636Z,28.85
2023-02-13T18:37:18.407Z,28.33
2023-02-13T18:39:44.911Z,28.38
2023-02-13T18:42:13.221Z,31.67
2023-02-13T18:44:40.511Z,27.40
2023-02-13T18:47:07.214Z,29.73
2023-02-13T18:49:33.592Z,27.80
2023-02-13T18:52:01.533Z,28.70
2023-02-13T18:54:28.222Z,30.58
2023-02-13T18:56:54.627Z,30.77
2023-02-13T18:59:21.791Z,29.98
2023-02-13T19:01:48.199Z,27.02
2023-02-13T19:04:14.673Z,30.70
2023-02-13T19:06:42.671Z,29.42
2023-02-13T19:09:09.807Z,28.98
2023-02-13T19:11:38.387Z,29.25
2023-02-13T19:14:05.788Z,28.60
2023-02-13T19:16:34.000Z,29.30
2023-02-13T19:19:04.268Z,29.17
2023-02-13T19:21:32.933Z,28.45
2023-02-13T19:23:59.318Z,29.65
2023-02-13T19:26:27.090Z,29.35
2023-02-13T19:28:54.182Z,30.63
2023-02-13T19:31:23.796Z,30.35
2023-02-13T19:36:20.005Z,28.02
2023-02-13T19:38:47.324Z,29.85
2023-02-13T19:41:16.362Z,26.25
2023-02-13T19:43:49.848Z,29.23
2023-02-13T19:46:18.743Z,30.10
2023-02-13T19:48:46.658Z,30.55
2023-02-13T19:51:15.733Z,25.45
2023-02-13T19:53:42.109Z,28.95
2023-02-13T19:56:09.254Z,28.08
2023-02-13T19:58:40.426Z,28.77
2023-02-13T20:01:08.820Z,30.60
2023-02-13T20:03:35.660Z,32.15
2023-02-13T20:06:07.542Z,31.13
2023-02-13T20:08:34.459Z,31.92
2023-02-13T20:11:01.112Z,29.80
2023-02-13T20:13:27.987Z,36.38
2023-02-13T20:15:55.121Z,34.40
2023-02-13T20:18:21.673Z,30.48
2023-02-13T20:20:48.077Z,29.42
2023-02-13T20:23:16.823Z,29.23
2023-02-13T20:25:43.225Z,30.33
2023-02-13T20:28:11.437Z,31.38
2023-02-13T20:30:42.016Z,31.88
2023-02-13T20:33:09.312Z,28.73
2023-02-13T20:35:35.679Z,31.30
2023-02-13T20:38:02.451Z,30.30
2023-02-13T20:40:28.835Z,32.78
2023-02-13T20:42:55.216Z,31.42
2023-02-13T20:45:21.694Z,28.75
2023-02-13T20:47:48.116Z,31.30
2023-02-13T20:50:14.511Z,31.30
2023-02-13T20:52:40.886Z,33.55
2023-02-13T20:55:07.792Z,30.17
2023-02-13T20:57:35.072Z,30.83
2023-02-13T21:00:01.661Z,30.08
2023-02-13T21:02:28.042Z,28.15
2023-02-13T21:04:54.425Z,30.40
2023-02-13T21:07:20.915Z,29.30
2023-02-13T21:09:47.250Z,31.92
2023-02-13T21:12:14.427Z,28.67
2023-02-13T21:14:40.997Z,29.38
2023-02-13T21:17:09.419Z,32.22
2023-02-13T21:19:35.954Z,31.27
2023-02-13T21:22:11.952Z,32.45
2023-02-13T21:24:40.668Z,30.98
2023-02-13T21:27:07.853Z,31.15
2023-02-13T21:29:35.605Z,31.25
2023-02-13T21:32:02.893Z,29.23
2023-02-13T21:34:29.308Z,30.83
2023-02-13T21:36:55.675Z,30.40
2023-02-13T21:39:22.100Z,31.45
2023-02-13T21:41:48.761Z,30.95
2023-02-13T21:44:16.502Z,30.63
2023-02-13T21:46:45.477Z,30.65
2023-02-13T21:49:14.304Z,34.00
2023-02-13T21:51:40.878Z,27.73
2023-02-13T21:54:07.257Z,31.77
2023-02-13T21:56:39.078Z,30.13
2023-02-13T21:59:05.882Z,31.13
2023-02-13T22:01:35.960Z,30.33
2023-02-13T22:04:07.477Z,31.08
2023-02-13T22:06:37.399Z,32.40
2023-02-13T22:09:12.690Z,35.53
2023-02-13T22:11:39.553Z,33.65
2023-02-13T22:14:07.772Z,34.40
2023-02-13T22:16:37.052Z,31.63
2023-02-13T22:19:05.795Z,37.10
2023-02-13T22:21:34.057Z,32.30
2023-02-13T22:24:01.724Z,36.75
2023-02-13T22:26:31.388Z,33.75
2023-02-13T22:29:17.699Z,33.05
2023-02-13T22:31:44.783Z,34.13
2023-02-13T22:34:13.445Z,36.05
2023-02-13T22:36:41.404Z,35.38
2023-02-13T22:39:10.284Z,31.85
2023-02-13T22:41:36.788Z,36.38
2023-02-13T22:44:03.410Z,32.17
2023-02-13T22:46:32.224Z,34.92
2023-02-13T22:48:59.527Z,32.38
2023-02-13T22:51:34.589Z,32.97
2023-02-13T22:54:01.431Z,36.65
2023-02-13T22:56:29.377Z,34.50
2023-02-13T22:58:56.215Z,36.80
2023-02-13T23:01:24.169Z,34.13
2023-02-13T23:03:50.563Z,34.13
2023-02-13T23:06:18.084Z,37.35
2023-02-13T23:08:45.115Z,34.67
2023-02-13T23:11:34.105Z,35.67
2023-02-13T23:14:01.386Z,32.40
2023-02-13T23:16:28.190Z,34.80
2023-02-13T23:18:56.539Z,33.97
2023-02-13T23:21:23.877Z,32.13
2023-02-13T23:23:50.376Z,33.00
2023-02-13T23:26:17.260Z,37.03
2023-02-13T23:28:43.607Z,34.55
2023-02-13T23:31:10.103Z,33.20
2023-02-13T23:33:36.648Z,35.10
2023-02-13T23:36:03.122Z,33.88
2023-02-13T23:38:29.563Z,35.80
2023-02-13T23:40:55.981Z,33.85
2023-02-13T23:43:22.344Z,33.88
2023-02-13T23:45:49.740Z,36.22
2023-02-13T23:48:16.114Z,34.42
2023-02-13T23:50:42.457Z,36.28
2023-02-13T23:53:09.784Z,32.70
2023-02-13T23:55:36.151Z,31.85
2023-02-13T23:58:02.534Z,33.20
